Latest Weather Observations for Biloela

IDQ60801

Issued at 7:22 am EST Friday 22 October 2021 (issued every 10 minutes, with the page automatically refreshed every 10 minutes)

About weather observations | Map of weather stations | Latest weather observations for QLD | Other Formats
Station Details ID: 039089 Name: THANGOOL AIRPORT Lat: -24.49 Lon: 150.57 Height: 193.1 m
Data from the previous 72 hours. | See also: Recent months at Biloela
Date/Time
EST
Temp
°C
App
Temp
°C
Dew
Point
°C
Rel
Hum
%
Delta-T
°C
Wind Press
QNH
hPa
Press
MSL
hPa
Rain since
9am
mm
Dir  Spd
km/h
Gust
km/h
Spd
kts
Gust
kts
22/07:00am 22.7 25.1 19.7 83 1.9 NE 6 9 3 5 1015.3 1014.5 0.2
22/06:30am 21.4 24.8 19.3 88 1.3 CALM 0 0 0 0 1015.2 1014.4 0.2
22/06:00am 20.5 23.8 19.2 92 0.8 CALM 0 0 0 0 1014.8 1014.0 0.2
22/05:30am 19.9 23.2 19.2 96 0.4 CALM 0 7 0 4 1014.5 1013.7 0.2
22/05:00am 19.2 22.2 18.5 96 0.4 CALM 0 0 0 0 1014.0 1013.2 0.2
22/04:30am 19.4 22.5 18.6 95 0.5 CALM 0 0 0 0 1013.5 1012.7 0.2
22/04:00am 20.0 23.0 18.5 91 0.9 CALM 0 0 0 0 1013.2 1012.4 0.2
22/03:30am 20.5 21.8 18.4 88 1.3 ENE 9 11 5 6 1013.1 1012.3 0.2
22/03:00am 21.8 22.9 18.8 83 1.9 NNE 11 19 6 10 1012.9 1012.1 0.2
22/02:30am 21.6 23.0 18.6 83 1.9 NNE 9 13 5 7 1012.9 1012.1 0.2
22/02:00am 21.5 23.4 18.9 85 1.7 N 7 11 4 6 1013.0 1012.2 0.2
22/01:30am 22.0 23.9 19.0 83 1.9 NNW 7 9 4 5 1013.1 1012.3 0.2
22/01:00am 22.0 24.0 18.8 82 2.0 N 6 11 3 6 1013.3 1012.5 0.2
22/12:30am 21.9 24.2 18.5 81 2.1 N 4 7 2 4 1013.5 1012.7 0.2
22/12:00am 21.7 24.3 18.5 82 2.0 N 2 6 1 3 1013.8 1013.0 0.2
 
Date/Time
EST
Temp
°C
App
Temp
°C
Dew
Point
°C
Rel
Hum
%
Delta-T
°C
Wind Press
QNH
hPa
Press
MSL
hPa
Rain since
9am
mm
Dir  Spd
km/h
Gust
km/h
Spd
kts
Gust
kts
21/11:30pm 21.5 24.0 18.1 81 2.1 N 2 9 1 5 1014.1 1013.3 0.2
21/11:00pm 22.1 22.1 18.1 78 2.5 N 15 22 8 12 1013.8 1013.0 0.2
21/10:30pm 22.1 22.4 17.9 77 2.6 N 13 20 7 11 1014.0 1013.2 0.2
21/10:00pm 22.4 22.8 18.2 77 2.6 NNE 13 20 7 11 1013.7 1012.9 0.2
21/09:30pm 22.2 23.2 18.6 80 2.3 NE 11 17 6 9 1013.5 1012.7 0.2
21/09:00pm 22.3 24.1 18.3 78 2.5 NNW 6 9 3 5 1013.3 1012.5 0.2
21/08:30pm 22.7 23.6 18.3 76 2.8 NNE 11 19 6 10 1012.6 1011.8 0.2
21/08:00pm 23.1 23.5 18.2 74 3.1 NNE 13 26 7 14 1012.6 1011.8 0.2
21/07:30pm 23.5 23.8 17.9 71 3.5 NE 13 22 7 12 1012.0 1011.2 0.2
21/07:00pm 24.1 23.3 18.1 69 3.8 NNE 19 30 10 16 1011.4 1010.6 0.2
21/06:30pm 24.8 23.8 18.0 66 4.3 NNE 20 32 11 17 1011.0 1010.2 0.2
21/06:00pm 25.9 24.8 17.8 61 5.1 NNE 20 30 11 16 1010.4 1009.6 0.2
21/05:30pm 27.1 25.6 17.6 56 6.0 NNE 22 30 12 16 1009.8 1009.0 0.2
21/05:00pm 27.8 26.0 17.0 51 6.8 NNE 22 33 12 18 1009.3 1008.5 0.2
21/04:30pm 29.7 28.0 15.8 43 8.7 NNE 19 28 10 15 1008.8 1008.0 0.2
21/04:00pm 30.8 29.0 14.4 36 10.1 N 17 24 9 13 1008.6 1007.8 0.2
21/03:30pm 30.4 28.3 15.3 40 9.4 N 20 30 11 16 1008.6 1007.8 0.2
21/03:00pm 30.2 28.8 15.5 41 9.1 N 17 32 9 17 1008.7 1007.9 0.2
21/02:30pm 31.2 29.9 16.8 42 9.2 NNE 19 32 10 17 1009.3 1008.5 0.2
21/02:00pm 30.2 27.9 14.7 39 9.5 N 20 28 11 15 1009.9 1009.1 0.2
21/01:30pm 30.7 28.7 15.5 39 9.5 NNW 20 28 11 15 1010.5 1009.7 0.2
21/01:00pm 29.6 28.5 16.4 45 8.3 N 17 28 9 15 1010.9 1010.1 0.2
21/12:30pm 28.8 27.8 16.7 48 7.6 NNW 17 24 9 13 1011.6 1010.8 0.2
21/12:00pm 28.1 27.6 17.9 54 6.5 NW 17 26 9 14 1012.4 1011.6 0.2
21/11:30am 27.0 26.9 17.8 57 5.9 NW 15 24 8 13 1012.9 1012.1 0.2
21/11:00am 26.3 25.3 17.6 58 5.5 NW 19 30 10 16 1013.5 1012.7 0.2
21/10:30am 26.8 26.8 18.1 59 5.6 NW 15 24 8 13 1013.4 1012.6 0.2
21/10:00am 25.3 25.2 17.0 60 5.2 NNW 13 22 7 12 1013.7 1012.9 0.2
21/09:30am 24.9 24.5 17.1 62 4.9 N 15 20 8 11 1014.0 1013.2 0.2
21/09:00am 24.6 26.5 15.8 58 5.4 CALM 0 6 0 3 1013.9 1013.1 1.6
21/08:30am 22.6 23.3 14.4 60 4.9 ESE 4 9 2 5 1014.2 1013.4 1.6
21/08:00am 21.2 21.1 13.4 61 4.5 E 6 11 3 6 1014.0 1013.2 1.6
21/07:30am 18.9 19.3 14.8 77 2.4 SE 6 9 3 5 1014.0 1013.2 1.6
21/07:00am 17.6 17.8 14.7 83 1.7 SE 7 11 4 6 1013.8 1013.0 1.6
21/06:30am 15.7 15.6 13.9 89 1.0 E 7 11 4 6 1013.5 1012.7 1.6
21/06:00am 13.8 13.6 13.0 95 0.4 E 6 9 3 5 1013.2 1012.4 1.6
21/05:30am 13.0 13.1 12.7 98 0.2 SE 4 11 2 6 1012.8 1012.0 1.6
21/05:00am 12.8 12.3 12.5 98 0.2 SE 7 7 4 4 1012.8 1012.0 1.6
21/04:30am 12.7 12.0 11.9 95 0.4 E 7 9 4 5 1012.7 1011.9 1.6
21/04:00am 13.2 12.7 12.6 96 0.3 ENE 7 9 4 5 1012.5 1011.7 1.6
21/03:30am 12.4 11.2 11.5 94 0.5 E 9 9 5 5 1012.9 1012.1 1.6
21/03:00am 13.0 12.4 12.4 96 0.3 E 7 11 4 6 1013.0 1012.2 1.6
21/02:30am 13.1 13.4 12.2 94 0.5 ESE 2 9 1 5 1013.1 1012.3 1.6
21/02:00am 13.4 14.0 11.8 90 0.9 CALM 0 0 0 0 1013.1 1012.3 1.6
21/01:30am 14.2 15.0 12.4 89 1.0 CALM 0 0 0 0 1013.2 1012.4 1.6
21/01:00am 14.2 15.0 12.6 90 0.9 CALM 0 0 0 0 1013.1 1012.3 1.6
21/12:30am 14.7 15.5 12.4 86 1.3 CALM 0 0 0 0 1013.2 1012.4 1.6
21/12:00am 15.6 16.4 12.5 82 1.7 CALM 0 0 0 0 1013.5 1012.7 1.6
 
Date/Time
EST
Temp
°C
App
Temp
°C
Dew
Point
°C
Rel
Hum
%
Delta-T
°C
Wind Press
QNH
hPa
Press
MSL
hPa
Rain since
9am
mm
Dir  Spd
km/h
Gust
km/h
Spd
kts
Gust
kts
20/11:30pm 16.1 15.8 12.7 80 1.9 NNW 6 7 3 4 1013.7 1012.9 1.6
20/11:00pm 18.2 17.8 12.4 69 3.3 N 6 7 3 4 1014.0 1013.2 1.6
20/10:30pm 18.6 18.7 12.6 68 3.4 W 4 9 2 5 1014.5 1013.7 1.6
20/10:00pm 19.7 18.0 12.5 63 4.1 ENE 13 19 7 10 1014.6 1013.8 1.6
20/09:30pm 18.3 19.0 12.3 68 3.4 CALM 0 2 0 1 1014.4 1013.6 1.6
20/09:00pm 19.0 19.4 12.5 66 3.7 NE 2 7 1 4 1014.0 1013.2 1.6
20/08:30pm 19.0 19.2 12.0 64 3.9 WSW 2 7 1 4 1013.6 1012.8 1.6
20/08:00pm 19.7 19.8 11.5 59 4.6 ESE 2 9 1 5 1013.0 1012.2 1.6
20/07:30pm 19.7 19.4 12.7 64 4.0 SW 6 9 3 5 1012.9 1012.1 1.6
20/07:00pm 20.2 18.9 12.4 61 4.4 ENE 11 13 6 7 1012.4 1011.6 1.6
20/06:30pm 21.2 22.6 14.4 65 4.0 CALM 0 0 0 0 1012.5 1011.7 1.6
20/06:00pm 23.7 24.3 12.0 47 6.7 CALM 0 0 0 0 1011.9 1011.1 1.6
20/05:30pm 24.5 23.2 11.1 43 7.6 N 9 13 5 7 1011.6 1010.8 1.6
20/05:00pm 25.0 23.6 10.8 41 8.0 NNE 9 17 5 9 1011.4 1010.6 1.6
20/04:30pm 24.8 22.8 11.4 43 7.6 NNE 13 20 7 11 1011.2 1010.4 1.6
20/04:00pm 24.1 22.6 14.2 54 5.9 E 15 24 8 13 1011.6 1010.8 1.6
20/03:30pm 23.9 23.4 15.9 61 4.9 E 13 20 7 11 1011.7 1010.9 1.6
20/03:00pm 21.8 22.2 16.3 71 3.4 SSE 9 17 5 9 1011.9 1011.1 1.6
20/02:30pm 19.1 19.0 15.0 77 2.4 NNW 9 17 5 9 1011.7 1010.9 1.6
20/02:27pm 18.9 18.6 15.4 80 2.1 NNW 11 17 6 9 1012.0 1011.2 1.6
20/02:05pm 17.8 13.5 13.3 75 2.6 N 28 46 15 25 1012.7 1011.9 1.4
20/02:01pm 18.0 13.7 13.1 73 2.8 N 28 46 15 25 1012.6 1011.8 1.4
20/02:00pm 17.9 13.8 12.8 72 2.9 N 26 46 14 25 1012.6 1011.8 1.4
20/01:41pm 19.7 17.5 14.5 72 3.0 NE 19 35 10 19 1012.8 1012.0 1.4
20/01:30pm 18.0 14.0 13.1 73 2.8 NNE 26 39 14 21 1011.8 1011.0 1.4
20/01:00pm 20.4 14.6 11.6 57 4.9 ESE 33 50 18 27 1011.9 1011.1 0.2
20/12:38pm 23.7 17.9 10.7 44 7.3 ESE 32 52 17 28 1012.5 1011.7 0.0
20/12:30pm 25.5 23.1 10.1 38 8.6 E 13 33 7 18 1012.6 1011.8 0.0
20/12:16pm 29.6 30.0 15.3 41 8.8 NW 7 15 4 8 1012.0 1011.2 0.0
20/12:00pm 28.3 28.3 14.2 42 8.5 W 7 13 4 7 1012.0 1011.2 0.0
20/11:30am 29.2 28.4 15.0 42 8.7 NW 13 20 7 11 1012.9 1012.1 0.0
20/11:00am 27.9 28.5 16.8 50 7.0 WNW 9 15 5 8 1013.6 1012.8 0.0
20/10:30am 28.0 28.5 16.6 50 7.1 N 9 17 5 9 1013.9 1013.1 0.0
20/10:00am 26.3 26.9 16.8 56 5.9 WNW 9 15 5 8 1014.6 1013.8 0.0
20/09:30am 26.6 27.2 16.8 55 6.1 NW 9 17 5 9 1015.0 1014.2 0.0
20/09:00am 25.8 26.6 17.4 59 5.3 NNW 9 15 5 8 1015.1 1014.3 1.2
20/08:30am 24.7 26.3 17.9 66 4.3 N 6 9 3 5 1015.2 1014.4 1.2
20/08:00am 22.3 23.4 17.0 72 3.3 WNW 7 11 4 6 1015.3 1014.5 1.2
20/07:30am 21.3 23.5 17.5 79 2.4 SSE 2 7 1 4 1014.9 1014.1 1.2
20/07:00am 20.7 22.2 18.1 85 1.6 ESE 7 9 4 5 1014.7 1013.9 1.0
20/06:30am 19.0 20.5 17.5 91 0.9 SSE 6 7 3 4 1014.4 1013.6 1.0
20/06:00am 17.2 19.6 17.0 99 0.1 CALM 0 6 0 3 1014.2 1013.4 1.0
20/05:30am 16.5 18.6 16.3 99 0.1 CALM 0 0 0 0 1013.9 1013.1 1.0
20/05:00am 16.7 18.5 16.5 99 0.1 E 2 7 1 4 1013.5 1012.7 1.0
20/04:30am 16.8 17.9 16.6 99 0.1 E 6 7 3 4 1013.1 1012.3 1.0
20/04:00am 16.9 18.7 16.4 97 0.3 N 2 6 1 3 1012.8 1012.0 1.0
20/03:30am 17.3 17.8 16.5 95 0.5 E 9 9 5 5 1012.7 1011.9 1.0
20/03:00am 17.0 18.6 16.0 94 0.6 SE 2 7 1 4 1012.8 1012.0 1.0
20/02:30am 17.1 17.5 15.4 90 1.0 ESE 7 9 4 5 1012.9 1012.1 1.0
20/02:00am 17.5 18.0 15.5 88 1.2 ESE 7 9 4 5 1013.5 1012.7 1.0
20/01:30am 17.7 18.5 15.9 89 1.1 SE 6 7 3 4 1014.1 1013.3 1.0
20/01:00am 18.3 18.9 15.9 86 1.4 ESE 7 7 4 4 1014.5 1013.7 1.0
20/12:30am 18.7 20.3 16.9 89 1.1 ESE 4 9 2 5 1014.8 1014.0 1.0
20/12:00am 18.9 20.2 17.2 90 1.0 SSE 6 7 3 4 1015.0 1014.2 1.0
 
Date/Time
EST
Temp
°C
App
Temp
°C
Dew
Point
°C
Rel
Hum
%
Delta-T
°C
Wind Press
QNH
hPa
Press
MSL
hPa
Rain since
9am
mm
Dir  Spd
km/h
Gust
km/h
Spd
kts
Gust
kts
19/11:30pm 19.3 20.7 17.8 91 0.9 SE 7 13 4 7 1015.2 1014.4 1.0
19/11:00pm 19.3 20.7 17.8 91 0.9 SE 7 13 4 7 1015.2 1014.4 1.0
19/10:30pm 20.1 20.8 17.9 87 1.4 NE 11 15 6 8 1015.3 1014.5 1.0
19/10:25pm 20.2 20.3 17.4 84 1.7 ENE 13 17 7 9 1015.2 1014.4 1.0
19/10:00pm 22.2 23.8 17.8 76 2.8 SSE 6 9 3 5 1016.0 1015.2 0.2
19/09:33pm 22.4 24.8 18.0 76 2.8 ESE 2 7 1 4 1015.4 1014.6 0.0
19/09:30pm 22.3 25.1 17.9 76 2.8 CALM 0 0 0 0 1015.4 1014.6 0.0
19/09:00pm 22.2 23.1 17.6 75 2.9 SSE 9 13 5 7 1014.4 1013.6 0.0
19/08:30pm 22.9 25.2 17.6 72 3.3 SSE 2 9 1 5 1013.6 1012.8 0.0
19/08:00pm 23.6 23.3 17.3 67 3.9 NNE 15 22 8 12 1013.3 1012.5 0.0
19/07:30pm 24.4 21.5 16.1 60 5.1 NE 26 35 14 19 1012.7 1011.9 0.0
19/07:00pm 24.9 23.1 17.9 65 4.4 NE 24 35 13 19 1011.9 1011.1 0.0
19/06:30pm 26.4 24.8 15.1 49 6.9 NNE 17 24 9 13 1011.6 1010.8 0.0
19/06:00pm 27.2 27.1 9.5 33 9.9 CALM 0 6 0 3 1011.1 1010.3 0.0
19/05:30pm 29.5 29.2 8.5 27 11.7 CALM 0 0 0 0 1010.9 1010.1 0.0
19/05:00pm 30.9 29.8 6.7 22 13.1 SW 2 7 1 4 1010.5 1009.7 0.0
19/04:30pm 30.6 29.3 5.8 21 13.2 ESE 2 11 1 6 1010.5 1009.7 0.0
19/04:00pm 30.7 28.1 5.9 21 13.3 NNE 9 17 5 9 1010.8 1010.0 0.0
19/03:30pm 31.1 28.0 5.5 20 13.6 WNW 11 19 6 10 1011.1 1010.3 0.0
19/03:00pm 31.7 29.0 7.4 22 13.4 NNW 11 20 6 11 1011.4 1010.6 0.0
19/02:30pm 31.6 30.1 8.6 24 12.9 NNE 6 17 3 9 1011.9 1011.1 0.0
19/02:00pm 30.5 28.1 7.0 23 12.8 NNW 9 15 5 8 1012.4 1011.6 0.0
19/01:30pm 31.0 27.5 5.4 20 13.6 WNW 13 20 7 11 1012.8 1012.0 0.0
19/01:00pm 29.9 28.4 11.9 33 10.6 NW 11 19 6 10 1013.3 1012.5 0.0
19/12:30pm 29.0 29.5 16.5 46 7.9 W 9 20 5 11 1014.0 1013.2 0.0
19/12:00pm 27.9 28.5 17.7 53 6.5 WNW 11 20 6 11 1014.7 1013.9 0.0
19/11:30am 25.8 27.2 17.7 61 5.1 W 7 13 4 7 1015.4 1014.6 0.0
19/11:00am 25.2 26.2 17.7 63 4.7 NW 9 15 5 8 1015.9 1015.1 0.0
19/10:30am 24.3 25.4 18.0 68 4.0 W 9 20 5 11 1016.4 1015.6 0.0
19/10:00am 23.8 24.6 17.3 67 4.1 WNW 9 15 5 8 1016.8 1016.1 0.0
19/09:30am 23.0 24.0 17.7 72 3.3 WNW 9 15 5 8 1017.1 1016.4 0.0
19/09:00am 22.3 23.6 17.2 73 3.2 SW 6 11 3 6 1017.2 1016.5 36.2
19/08:30am 20.7 21.9 15.9 74 2.9 SW 4 9 2 5 1017.2 1016.5 36.2
19/08:00am 19.7 21.9 17.5 87 1.4 S 2 6 1 3 1017.0 1016.3 36.2
19/07:30am 17.3 19.1 15.5 89 1.1 CALM 0 7 0 4 1016.9 1016.2 36.2

Other formats

Comma delimited format used in spreadsheet applications
http://www.bom.gov.au/fwo/IDQ60801/IDQ60801.94376.axf

JavaScript Object Notation format (JSON) in row-major order
http://www.bom.gov.au/fwo/IDQ60801/IDQ60801.94376.json

Data quality

Most of these data are generated automatically and are frequently updated. Quality checks on data are not normally performed. It is possible for incorrect values to appear. Refer to information at About Latest Weather Observations and please check the disclaimer before using these data.